Terminal Aerodrome Forecast
Issued by NWS

Home | Current Version | Previous Version | Text Only | Print | Product List | Glossary On
Versions: 1 2 3 4 5 6 7 8 9 10 11 12 13 14 15 16
000
FTUS44 KCRP 231726
TAFLRD
TAF
KLRD 231726Z 2318/2418 15017G22KT P6SM SKC
     FM240500 14009KT P6SM SKC
     FM241500 15015KT P6SM SKC=

USA.gov is the U.S. government's official web portal to all federal, state and local government web resources and services.